Gulf Dawn — WCY2448 — position and weather

sailwx.info

Track history (hours):
 
Tides and Currents Weather Stations Pressure Air Temp Water Temp Dewpoint Dewpoint Depression Visibility Wind Speed Wind Dir Waves Ship Positions

Gulf Dawn

Owner: CHARPENTIER, KENNETH G, GRETNA, LA. More information available from US FCC via Universal Licensing System and Coast Guard Vessel Documentation Center.

Last reported at 2018-Jul-15 04:37 UTC. Time now 2018-Jul-17 05:19 UTC.
Position N 32°44' W 079°51'.

Length 26 m; draft 4 m.

MMSI: 367005130.

Date/timePositionNaut miles runAvg speedWind from/ knotsBaromVisibWave heightAir tempDewpointWater temp
2018-Jul-15 04:37N 32°44' W 079°51'1 6.5
2018-Jul-15 04:28N 32°45' W 079°51'2 4.9
2018-Jul-15 04:00N 32°46' W 079°54'0 0.1
2018-Jul-15 01:10N 32°45' W 079°54'0 0.0
2018-Jul-15 01:00N 32°45' W 079°54'0 0.2
2018-Jul-15 00:30N 32°45' W 079°54'2 3.3
2018-Jul-15 00:00N 32°46' W 079°53'2 0.0
2018-Jul-12 21:03N 32°44' W 079°50'0 3.1
2018-Jul-12 21:00N 32°44' W 079°50'1 2.9
2018-Jul-12 20:30N 32°45' W 079°52'1 3.0
2018-Jul-12 20:00N 32°46' W 079°54'1 1.4
2018-Jul-12 19:30N 32°45' W 079°54'0 0.0
2018-Jul-12 19:01N 32°45' W 079°54'0 0.0
2018-Jul-12 18:30N 32°45' W 079°54'0 0.0
2018-Jul-12 18:00N 32°45' W 079°54'0 0.0
2018-Jul-12 17:29N 32°45' W 079°54'0 0.0
2018-Jul-12 17:00N 32°45' W 079°54'0 0.0
2018-Jul-12 16:30N 32°45' W 079°54'0 0.0
2018-Jul-12 16:00N 32°45' W 079°54'0 0.0
2018-Jul-12 15:31N 32°45' W 079°54'0 0.0
2018-Jul-12 15:00N 32°45' W 079°54'0 0.0
2018-Jul-12 14:30N 32°45' W 079°54'0 0.4
2018-Jul-12 13:59N 32°45' W 079°54'0 0.0
2018-Jul-10 21:11N 32°45' W 079°54'0 0.0
2018-Jul-10 21:00N 32°45' W 079°54'0 0.0
2018-Jul-10 20:30N 32°45' W 079°54'0 0.0
2018-Jul-10 20:00N 32°45' W 079°54'0 0.1
2018-Jul-10 19:30N 32°45' W 079°54'0 0.0
2018-Jul-10 18:59N 32°45' W 079°54'2 4.9
2018-Jul-10 18:30N 32°48' W 079°55'3 3.3
2018-Jul-10 17:44N 32°50' W 079°57'0 0.0
2018-Jul-10 17:19N 32°50' W 079°57'0 0.0
2018-Jul-10 17:00N 32°50' W 079°57'0 0.0
2018-Jul-10 16:30N 32°50' W 079°57'0 0.0
2018-Jul-10 11:27N 32°50' W 079°57'  
2018-Jul-07 15:21N 32°50' W 079°57'2 6.1
2018-Jul-07 14:59N 32°48' W 079°56'3 4.9
2018-Jul-07 14:26N 32°45' W 079°54'0 0.1
2018-Jul-07 14:00N 32°45' W 079°55'1 1.8
2018-Jul-07 13:24N 32°46' W 079°53'1 3.0
2018-Jul-07 12:59N 32°45' W 079°52'  
Track history (hours):
 
Tides and Currents Weather Stations Pressure Air Temp Water Temp Dewpoint Dewpoint Depression Visibility Wind Speed Wind Dir Waves Ship Positions

Gulf Dawn

Owner: CHARPENTIER, KENNETH G, GRETNA, LA. More information available from US FCC via Universal Licensing System and Coast Guard Vessel Documentation Center.

Last reported at 2018-Jul-15 04:37 UTC. Time now 2018-Jul-17 05:19 UTC.
Position N 32°44' W 079°51'.

Length 26 m; draft 4 m.

MMSI: 367005130.

Date/timePositionNaut miles runAvg speedWind from/ knotsBaromVisibWave heightAir tempDewpointWater temp
2018-Jul-15 04:37N 32°44' W 079°51'1 6.5
2018-Jul-15 04:28N 32°45' W 079°51'2 4.9
2018-Jul-15 04:00N 32°46' W 079°54'0 0.1
2018-Jul-15 01:10N 32°45' W 079°54'0 0.0
2018-Jul-15 01:00N 32°45' W 079°54'0 0.2
2018-Jul-15 00:30N 32°45' W 079°54'2 3.3
2018-Jul-15 00:00N 32°46' W 079°53'2 0.0
2018-Jul-12 21:03N 32°44' W 079°50'0 3.1
2018-Jul-12 21:00N 32°44' W 079°50'1 2.9
2018-Jul-12 20:30N 32°45' W 079°52'1 3.0
2018-Jul-12 20:00N 32°46' W 079°54'1 1.4
2018-Jul-12 19:30N 32°45' W 079°54'0 0.0
2018-Jul-12 19:01N 32°45' W 079°54'0 0.0
2018-Jul-12 18:30N 32°45' W 079°54'0 0.0
2018-Jul-12 18:00N 32°45' W 079°54'0 0.0
2018-Jul-12 17:29N 32°45' W 079°54'0 0.0
2018-Jul-12 17:00N 32°45' W 079°54'0 0.0
2018-Jul-12 16:30N 32°45' W 079°54'0 0.0
2018-Jul-12 16:00N 32°45' W 079°54'0 0.0
2018-Jul-12 15:31N 32°45' W 079°54'0 0.0
2018-Jul-12 15:00N 32°45' W 079°54'0 0.0
2018-Jul-12 14:30N 32°45' W 079°54'0 0.4
2018-Jul-12 13:59N 32°45' W 079°54'0 0.0
2018-Jul-10 21:11N 32°45' W 079°54'0 0.0
2018-Jul-10 21:00N 32°45' W 079°54'0 0.0
2018-Jul-10 20:30N 32°45' W 079°54'0 0.0
2018-Jul-10 20:00N 32°45' W 079°54'0 0.1
2018-Jul-10 19:30N 32°45' W 079°54'0 0.0
2018-Jul-10 18:59N 32°45' W 079°54'2 4.9
2018-Jul-10 18:30N 32°48' W 079°55'3 3.3
2018-Jul-10 17:44N 32°50' W 079°57'0 0.0
2018-Jul-10 17:19N 32°50' W 079°57'0 0.0
2018-Jul-10 17:00N 32°50' W 079°57'0 0.0
2018-Jul-10 16:30N 32°50' W 079°57'0 0.0
2018-Jul-10 11:27N 32°50' W 079°57'  
2018-Jul-07 15:21N 32°50' W 079°57'2 6.1
2018-Jul-07 14:59N 32°48' W 079°56'3 4.9
2018-Jul-07 14:26N 32°45' W 079°54'0 0.1
2018-Jul-07 14:00N 32°45' W 079°55'1 1.8
2018-Jul-07 13:24N 32°46' W 079°53'1 3.0
2018-Jul-07 12:59N 32°45' W 079°52'  

Dump ship's entire track history